createdAt,value
2022-09-12T02:48:22.377Z,51.156158
2022-09-12T02:49:22.353Z,51.156151
2022-09-12T02:50:22.181Z,51.156143
2022-09-12T02:51:23.791Z,51.156185
2022-09-12T02:52:23.169Z,51.156178
2022-09-12T02:53:22.183Z,51.156281
2022-09-12T02:54:22.215Z,51.156147
2022-09-12T02:55:22.109Z,51.156128
2022-09-12T02:56:22.105Z,51.156113
2022-09-12T02:57:23.253Z,51.156136
2022-09-12T02:58:23.087Z,51.156158
2022-09-12T02:59:22.064Z,51.156174
2022-09-12T03:00:22.063Z,51.156185
2022-09-12T03:01:22.164Z,51.156109
2022-09-12T03:02:22.084Z,51.156113
2022-09-12T03:03:22.092Z,51.156101
2022-09-12T03:04:22.063Z,51.156113
2022-09-12T03:05:22.039Z,51.156109
2022-09-12T03:06:22.041Z,51.156101
2022-09-12T03:07:22.008Z,51.156124
2022-09-12T03:08:22.069Z,51.156033
2022-09-12T03:09:22.010Z,51.156120
2022-09-12T03:10:21.976Z,51.156094
2022-09-12T03:11:21.937Z,51.156105
2022-09-12T03:12:21.981Z,51.156113
2022-09-12T03:13:21.953Z,51.156109
2022-09-12T03:14:21.953Z,51.156120
2022-09-12T03:15:21.918Z,51.156109
2022-09-12T03:16:21.986Z,51.156124
2022-09-12T03:17:21.937Z,51.156090
2022-09-12T03:18:21.889Z,51.156033
2022-09-12T03:19:21.893Z,51.156082
2022-09-12T03:20:21.906Z,51.156086
2022-09-12T03:21:21.863Z,51.156025
2022-09-12T03:22:21.828Z,51.156120
2022-09-12T03:23:22.067Z,51.156090
2022-09-12T03:24:21.813Z,51.156082
2022-09-12T03:25:21.780Z,51.156078
2022-09-12T03:26:21.869Z,51.156113
2022-09-12T03:27:22.632Z,51.156113
2022-09-12T03:28:21.825Z,51.156136
2022-09-12T03:29:21.845Z,51.156086
2022-09-12T03:30:21.835Z,51.156101
2022-09-12T03:31:21.787Z,51.156082
2022-09-12T03:32:21.754Z,51.156071
2022-09-12T03:33:21.775Z,51.156052
2022-09-12T03:34:21.772Z,51.156090
2022-09-12T03:35:23.163Z,51.156040
2022-09-12T03:36:22.737Z,51.156059
2022-09-12T03:37:21.732Z,51.156086
2022-09-12T03:38:21.752Z,51.156078
2022-09-12T03:39:21.708Z,51.155998
2022-09-12T03:40:21.694Z,51.156048
2022-09-12T03:41:21.660Z,51.156033
2022-09-12T03:42:22.542Z,51.156033
2022-09-12T03:43:21.680Z,51.155987
2022-09-12T03:44:21.648Z,51.155979
2022-09-12T03:45:21.654Z,51.156025
2022-09-12T03:46:22.132Z,51.156105
2022-09-12T03:47:21.639Z,51.156071
2022-09-12T03:48:21.617Z,51.156044
2022-09-12T03:49:21.606Z,51.156048
2022-09-12T03:50:21.569Z,51.156040
2022-09-12T03:51:21.590Z,51.156063
2022-09-12T03:52:21.548Z,51.156094
2022-09-12T03:53:21.599Z,51.156124
2022-09-12T03:54:21.514Z,51.156052
2022-09-12T03:55:21.530Z,51.156048
2022-09-12T03:56:21.509Z,51.156006
2022-09-12T03:57:21.536Z,51.155972
2022-09-12T03:58:21.559Z,51.156013
2022-09-12T03:59:21.483Z,51.156025
2022-09-12T04:00:21.495Z,51.156006
2022-09-12T04:01:21.542Z,51.155983
2022-09-12T04:02:21.543Z,51.155968
2022-09-12T04:03:21.484Z,51.155979
2022-09-12T04:04:21.463Z,51.155998
2022-09-12T04:05:21.434Z,51.156055
2022-09-12T04:06:21.391Z,51.155945
2022-09-12T04:07:21.471Z,51.156006
2022-09-12T04:08:21.426Z,51.155991
2022-09-12T04:09:21.377Z,51.156033
2022-09-12T04:10:21.368Z,51.156059
2022-09-12T04:11:21.406Z,51.156048
2022-09-12T04:12:21.344Z,51.155998
2022-09-12T04:13:21.354Z,51.155937
2022-09-12T04:14:21.407Z,51.155998
2022-09-12T04:15:21.349Z,51.156109
2022-09-12T04:16:21.341Z,51.156132
2022-09-12T04:17:21.354Z,51.156113
2022-09-12T04:18:21.336Z,51.156063
2022-09-12T04:19:21.327Z,51.156036
2022-09-12T04:20:21.318Z,51.156124
2022-09-12T04:21:22.000Z,51.156155
2022-09-12T04:22:21.253Z,51.156113
2022-09-12T04:23:21.720Z,51.156082
2022-09-12T04:24:21.227Z,51.156101
2022-09-12T04:25:21.229Z,51.156162
2022-09-12T04:26:21.227Z,51.156120
2022-09-12T04:27:21.193Z,51.156101
2022-09-12T04:28:21.289Z,51.156082
2022-09-12T04:29:21.169Z,51.156105
2022-09-12T04:30:21.173Z,51.156136
2022-09-12T04:31:21.168Z,51.156197
2022-09-12T04:32:21.122Z,51.156105
2022-09-12T04:33:21.145Z,51.156116
2022-09-12T04:34:21.175Z,51.156094
2022-09-12T04:35:21.153Z,51.156101
2022-09-12T04:36:21.118Z,51.156071
2022-09-12T04:37:21.158Z,51.156082
2022-09-12T04:38:21.161Z,51.156086
2022-09-12T04:39:21.121Z,51.156109
2022-09-12T04:40:21.082Z,51.156086
2022-09-12T04:41:21.087Z,51.156124
2022-09-12T04:42:21.146Z,51.156116
2022-09-12T04:43:21.046Z,51.156097
2022-09-12T04:44:21.040Z,51.156090
2022-09-12T04:45:21.042Z,51.156143
2022-09-12T04:46:21.011Z,51.156128
2022-09-12T04:47:21.018Z,51.156109
2022-09-12T04:48:21.032Z,51.156094
2022-09-12T04:49:20.989Z,51.156082
2022-09-12T04:50:20.940Z,51.156105
2022-09-12T04:51:20.970Z,51.156094
2022-09-12T04:52:20.953Z,51.156067
2022-09-12T04:53:20.939Z,51.156067
2022-09-12T04:54:20.974Z,51.156086
2022-09-12T04:55:20.954Z,51.156101
2022-09-12T04:56:20.924Z,51.156101
2022-09-12T04:57:21.516Z,51.156075
2022-09-12T04:58:20.959Z,51.156086
2022-09-12T04:59:20.893Z,51.156139
2022-09-12T05:00:20.926Z,51.156193
2022-09-12T05:01:20.955Z,51.156097
2022-09-12T05:02:20.893Z,51.156116
2022-09-12T05:03:20.861Z,51.156178
2022-09-12T05:04:20.825Z,51.156197
2022-09-12T05:05:20.826Z,51.156162
2022-09-12T05:06:20.823Z,51.156136
2022-09-12T05:07:20.847Z,51.156166
2022-09-12T05:08:21.052Z,51.156124
2022-09-12T05:09:20.838Z,51.156078
2022-09-12T05:10:20.773Z,51.156044
2022-09-12T05:11:24.752Z,51.156078
2022-09-12T05:12:22.724Z,51.156094
2022-09-12T05:13:24.085Z,51.156109
2022-09-12T05:14:20.727Z,51.156105
2022-09-12T05:15:22.775Z,51.156109
2022-09-12T05:16:20.724Z,51.156124
2022-09-12T05:17:20.759Z,51.156105
2022-09-12T05:18:20.759Z,51.156113
2022-09-12T05:19:20.702Z,51.156120
2022-09-12T05:20:20.711Z,51.156124
2022-09-12T05:21:20.696Z,51.156105
2022-09-12T05:22:20.649Z,51.156116
2022-09-12T05:23:20.709Z,51.156113
2022-09-12T05:24:20.674Z,51.156109
2022-09-12T05:25:20.627Z,51.156120
2022-09-12T05:26:20.614Z,51.156113
2022-09-12T05:27:20.685Z,51.156105
2022-09-12T05:28:20.605Z,51.156128
2022-09-12T05:29:20.583Z,51.156082
2022-09-12T05:30:20.665Z,51.156090
2022-09-12T05:31:20.597Z,51.156094
2022-09-12T05:32:20.588Z,51.156120
2022-09-12T05:33:24.916Z,51.156151
2022-09-12T05:34:21.539Z,51.156075
2022-09-12T05:35:20.713Z,51.156090
2022-09-12T05:36:20.542Z,51.156113
2022-09-12T05:37:20.521Z,51.156128
2022-09-12T05:38:20.531Z,51.156132
2022-09-12T05:39:20.549Z,51.156101
2022-09-12T05:40:20.453Z,51.156067
2022-09-12T05:41:24.729Z,51.156059
2022-09-12T05:42:21.500Z,51.156094
2022-09-12T05:43:20.484Z,51.156128
2022-09-12T05:44:20.573Z,51.156116
2022-09-12T05:45:20.450Z,51.156086
2022-09-12T05:46:20.412Z,51.156094
2022-09-12T05:47:20.442Z,51.156094
2022-09-12T05:48:20.469Z,51.156090
2022-09-12T05:49:20.394Z,51.156113
2022-09-12T05:50:20.463Z,51.156120
2022-09-12T05:51:20.390Z,51.156105
2022-09-12T05:52:20.401Z,51.156128
2022-09-12T05:53:20.382Z,51.156113
2022-09-12T05:54:20.474Z,51.156086
2022-09-12T05:55:20.381Z,51.156109
2022-09-12T05:56:20.348Z,51.156124
2022-09-12T05:57:20.350Z,51.156086
2022-09-12T05:58:20.412Z,51.156097
2022-09-12T05:59:20.307Z,51.156086
2022-09-12T06:00:20.314Z,51.156086
2022-09-12T06:01:20.315Z,51.156078
2022-09-12T06:02:20.376Z,51.156101
2022-09-12T06:03:20.279Z,51.156109
2022-09-12T06:04:21.140Z,51.156097
2022-09-12T06:05:20.283Z,51.156124
2022-09-12T06:06:20.237Z,51.156097
2022-09-12T06:07:20.272Z,51.156082
2022-09-12T06:08:20.218Z,51.156071
2022-09-12T06:09:20.241Z,51.156075
2022-09-12T06:10:20.237Z,51.156094
2022-09-12T06:11:20.209Z,51.156124
2022-09-12T06:12:20.210Z,51.156097
2022-09-12T06:13:20.190Z,51.156105
2022-09-12T06:14:21.244Z,51.156113
2022-09-12T06:15:21.773Z,51.156082
2022-09-12T06:16:20.246Z,51.156094
2022-09-12T06:17:20.159Z,51.156166
2022-09-12T06:18:20.214Z,51.156139
2022-09-12T06:19:20.110Z,51.156078
2022-09-12T06:20:20.131Z,51.156078
2022-09-12T06:21:20.073Z,51.156094
2022-09-12T06:22:20.133Z,51.156090
2022-09-12T06:23:20.103Z,51.156082
2022-09-12T06:24:20.097Z,51.156105
2022-09-12T06:25:20.068Z,51.156082
2022-09-12T06:26:20.100Z,51.156124
2022-09-12T06:27:20.026Z,51.156151
2022-09-12T06:28:20.084Z,51.156143
2022-09-12T06:29:20.032Z,51.156143
2022-09-12T06:30:24.765Z,51.156136
2022-09-12T06:31:21.988Z,51.156105
2022-09-12T06:32:19.991Z,51.156113
2022-09-12T06:33:20.088Z,51.156078
2022-09-12T06:34:19.962Z,51.156101
2022-09-12T06:35:20.031Z,51.156101
2022-09-12T06:36:19.978Z,51.156071
2022-09-12T06:37:20.001Z,51.156067
2022-09-12T06:38:20.173Z,51.156101
2022-09-12T06:39:19.949Z,51.156132
2022-09-12T06:40:19.992Z,51.156097
2022-09-12T06:41:19.903Z,51.156075
2022-09-12T06:42:20.001Z,51.156120
2022-09-12T06:43:19.896Z,51.156109
2022-09-12T06:44:19.885Z,51.156120
2022-09-12T06:45:19.854Z,51.156078
2022-09-12T06:46:19.919Z,51.156097
2022-09-12T06:47:19.854Z,51.156120
2022-09-12T06:48:19.854Z,51.156090
2022-09-12T06:49:19.860Z,51.156071
2022-09-12T06:50:19.872Z,51.156124
2022-09-12T06:51:19.788Z,51.156078
2022-09-12T06:52:19.901Z,51.156082
2022-09-12T06:53:19.829Z,51.156090
2022-09-12T06:54:19.793Z,51.156132
2022-09-12T06:55:22.543Z,51.156139
2022-09-12T06:56:20.765Z,51.156116
2022-09-12T06:57:19.823Z,51.156090
2022-09-12T06:58:20.681Z,51.156105
2022-09-12T06:59:19.739Z,51.155983
2022-09-12T07:00:19.725Z,51.155987
2022-09-12T07:01:19.752Z,51.155991
2022-09-12T07:02:19.771Z,51.156036
2022-09-12T07:03:19.756Z,51.156071
2022-09-12T07:04:19.668Z,51.155888
2022-09-12T07:05:19.647Z,51.155941
2022-09-12T07:06:19.763Z,51.155983
2022-09-12T07:07:19.651Z,51.156086
2022-09-12T07:08:19.668Z,51.156109
2022-09-12T07:09:19.626Z,51.156143
2022-09-12T07:10:22.316Z,51.156002
2022-09-12T07:11:20.659Z,51.156067
2022-09-12T07:12:19.608Z,51.156120
2022-09-12T07:13:20.489Z,51.156235
2022-09-12T07:14:19.625Z,51.156181
2022-09-12T07:15:19.602Z,51.156124
2022-09-12T07:16:20.186Z,51.156120
2022-09-12T07:17:20.529Z,51.156101
2022-09-12T07:18:19.549Z,51.156067
2022-09-12T07:19:19.617Z,51.156075
2022-09-12T07:20:19.491Z,51.156048
2022-09-12T07:21:19.758Z,51.156132
2022-09-12T07:22:19.516Z,51.156105
2022-09-12T07:23:19.506Z,51.156044
2022-09-12T07:24:19.478Z,51.156006
2022-09-12T07:25:19.508Z,51.156082
2022-09-12T07:26:19.453Z,51.156155
2022-09-12T07:27:19.489Z,51.156113
2022-09-12T07:28:19.436Z,51.156086
2022-09-12T07:29:36.081Z,51.156094
2022-09-12T07:30:21.453Z,51.156063
2022-09-12T07:31:19.424Z,51.156055
2022-09-12T07:32:19.453Z,51.156055
2022-09-12T07:33:20.131Z,51.156078
2022-09-12T07:34:19.410Z,51.156063
2022-09-12T07:35:19.421Z,51.156090
2022-09-12T07:36:19.389Z,51.156120
2022-09-12T07:37:19.305Z,51.156113
2022-09-12T07:38:19.329Z,51.156063
2022-09-12T07:39:19.396Z,51.156044
2022-09-12T07:40:19.368Z,51.156063
2022-09-12T07:41:19.353Z,51.156067
2022-09-12T07:42:19.334Z,51.156101
2022-09-12T07:43:19.282Z,51.156082
2022-09-12T07:44:19.297Z,51.156048
2022-09-12T07:45:19.292Z,51.156059
2022-09-12T07:46:19.368Z,51.156044
2022-09-12T07:47:19.213Z,51.156086
2022-09-12T07:48:19.198Z,51.156071
2022-09-12T07:49:19.249Z,51.156063
2022-09-12T07:50:19.234Z,51.156071
2022-09-12T07:51:19.191Z,51.156097
2022-09-12T07:52:19.240Z,51.156258
2022-09-12T07:53:19.180Z,51.156189
2022-09-12T07:54:19.248Z,51.156059
2022-09-12T07:55:19.181Z,51.156052
2022-09-12T07:56:19.173Z,51.156113
2022-09-12T07:57:19.200Z,51.156075
2022-09-12T07:58:19.308Z,51.156059
2022-09-12T07:59:41.437Z,51.156082
2022-09-12T08:00:21.163Z,51.156067
2022-09-12T08:01:19.136Z,51.156071
2022-09-12T08:02:19.689Z,51.156063
2022-09-12T08:03:19.123Z,51.156097
2022-09-12T08:04:19.106Z,51.156040
2022-09-12T08:05:19.052Z,51.156113
2022-09-12T08:06:19.066Z,51.156097
2022-09-12T08:07:19.047Z,51.156094
2022-09-12T08:08:19.043Z,51.156044
2022-09-12T08:09:19.032Z,51.156090
2022-09-12T08:10:18.998Z,51.156044
2022-09-12T08:11:18.988Z,51.156021
2022-09-12T08:12:18.982Z,51.156048
2022-09-12T08:13:19.020Z,51.156055
2022-09-12T08:14:18.961Z,51.156059
2022-09-12T08:15:18.962Z,51.156059
2022-09-12T08:16:18.922Z,51.156120
2022-09-12T08:17:19.077Z,51.156136
2022-09-12T08:18:18.967Z,51.156181
2022-09-12T08:19:18.914Z,51.156071
2022-09-12T08:20:18.900Z,51.156048
2022-09-12T08:21:18.985Z,51.156048
2022-09-12T08:22:18.922Z,51.156086
2022-09-12T08:23:18.936Z,51.156097
2022-09-12T08:24:18.893Z,51.156105
2022-09-12T08:25:18.905Z,51.156101
2022-09-12T08:26:18.833Z,51.156063
2022-09-12T08:27:18.865Z,51.156078
2022-09-12T08:28:18.848Z,51.156078
2022-09-12T08:29:18.846Z,51.156097
2022-09-12T08:30:18.822Z,51.156086
2022-09-12T08:31:18.815Z,51.156048
2022-09-12T08:32:18.832Z,51.156078
2022-09-12T08:33:18.834Z,51.156025
2022-09-12T08:34:18.846Z,51.156033
2022-09-12T08:35:18.856Z,51.156143
2022-09-12T08:36:18.883Z,51.156143
2022-09-12T08:37:18.808Z,51.156075
2022-09-12T08:38:18.813Z,51.156090
2022-09-12T08:39:23.764Z,51.156109
2022-09-12T08:40:18.809Z,51.156078
2022-09-12T08:41:18.821Z,51.156059
2022-09-12T08:42:18.737Z,51.156067
2022-09-12T08:43:18.763Z,51.156105
2022-09-12T08:44:18.793Z,51.156147
2022-09-12T08:45:18.732Z,51.156078
2022-09-12T08:46:18.745Z,51.156052
2022-09-12T08:47:18.720Z,51.156044
2022-09-12T08:48:18.658Z,51.156044
2022-09-12T08:49:18.700Z,51.156101
2022-09-12T08:50:18.673Z,51.156094
2022-09-12T08:51:18.599Z,51.156055
2022-09-12T08:52:18.647Z,51.156059
2022-09-12T08:53:18.583Z,51.156059
2022-09-12T08:54:18.577Z,51.156075
2022-09-12T08:55:18.614Z,51.156017
2022-09-12T08:56:18.730Z,51.156052
2022-09-12T08:57:18.574Z,51.156078
2022-09-12T08:58:18.564Z,51.156059
2022-09-12T08:59:18.504Z,51.156086
2022-09-12T09:00:19.170Z,51.156055
2022-09-12T09:01:18.576Z,51.156052
2022-09-12T09:02:18.566Z,51.156059
2022-09-12T09:03:18.519Z,51.156071
2022-09-12T09:04:18.525Z,51.156086
2022-09-12T09:05:18.530Z,51.156078
2022-09-12T09:06:18.473Z,51.156101
2022-09-12T09:07:18.448Z,51.156078
2022-09-12T09:08:18.443Z,51.156071
2022-09-12T09:09:18.457Z,51.156071
2022-09-12T09:10:18.550Z,51.156059
2022-09-12T09:11:18.440Z,51.156078
2022-09-12T09:12:18.388Z,51.156067
2022-09-12T09:13:18.408Z,51.156040
2022-09-12T09:14:18.433Z,51.156048
2022-09-12T09:15:18.376Z,51.156063
2022-09-12T09:16:18.434Z,51.156044
2022-09-12T09:17:18.350Z,51.156067
2022-09-12T09:18:18.362Z,51.156086
2022-09-12T09:19:18.393Z,51.156128
2022-09-12T09:20:18.341Z,51.156124
2022-09-12T09:21:18.362Z,51.156063
2022-09-12T09:22:18.313Z,51.156094
2022-09-12T09:23:18.323Z,51.156071
2022-09-12T09:24:18.357Z,51.156055
2022-09-12T09:25:22.588Z,51.156052
2022-09-12T09:26:19.230Z,51.156036
2022-09-12T09:27:37.287Z,51.156052
2022-09-12T09:28:20.270Z,51.156086
2022-09-12T09:29:18.242Z,51.156075
2022-09-12T09:30:18.319Z,51.156052
2022-09-12T09:31:18.273Z,51.156082
2022-09-12T09:32:18.179Z,51.156071
2022-09-12T09:33:18.214Z,51.156067
2022-09-12T09:34:18.168Z,51.156078
2022-09-12T09:35:18.146Z,51.156075
2022-09-12T09:36:18.133Z,51.156071
2022-09-12T09:37:18.145Z,51.156063
2022-09-12T09:38:18.143Z,51.156052
2022-09-12T09:39:18.109Z,51.156048
2022-09-12T09:40:18.274Z,51.156055
2022-09-12T09:41:18.112Z,51.156063
2022-09-12T09:42:18.115Z,51.156063
2022-09-12T09:43:18.149Z,51.156078
2022-09-12T09:44:18.626Z,51.156044
2022-09-12T09:45:18.139Z,51.156075
2022-09-12T09:46:18.088Z,51.156078
2022-09-12T09:47:18.008Z,51.156063
2022-09-12T09:48:18.032Z,51.156082
2022-09-12T09:49:18.029Z,51.156082
2022-09-12T09:50:18.017Z,51.156044
2022-09-12T09:51:17.997Z,51.156048
2022-09-12T09:52:17.994Z,51.156082
2022-09-12T09:53:18.027Z,51.156067
2022-09-12T09:54:17.990Z,51.156078
2022-09-12T09:55:17.917Z,51.156078
2022-09-12T09:56:21.407Z,51.156105
2022-09-12T09:57:18.927Z,51.156097
2022-09-12T09:58:17.971Z,51.156086
2022-09-12T09:59:18.008Z,51.156090
2022-09-12T10:00:17.911Z,51.156071
2022-09-12T10:01:17.974Z,51.156059
2022-09-12T10:02:23.157Z,51.156097
2022-09-12T10:03:19.935Z,51.156097
2022-09-12T10:04:17.931Z,51.156094
2022-09-12T10:05:17.919Z,51.156094
2022-09-12T10:06:17.861Z,51.156109
2022-09-12T10:07:17.829Z,51.156082
2022-09-12T10:08:17.835Z,51.156120
2022-09-12T10:09:17.845Z,51.156105
2022-09-12T10:10:17.803Z,51.156086
2022-09-12T10:11:17.796Z,51.156063
2022-09-12T10:12:17.806Z,51.156055
2022-09-12T10:13:17.812Z,51.156052
2022-09-12T10:14:17.764Z,51.156029
2022-09-12T10:15:17.800Z,51.156044
2022-09-12T10:16:17.755Z,51.156086
2022-09-12T10:17:17.750Z,51.156075
2022-09-12T10:18:17.783Z,51.156120
2022-09-12T10:19:17.783Z,51.156128
2022-09-12T10:20:21.497Z,51.156143
2022-09-12T10:21:18.708Z,51.156094
2022-09-12T10:22:17.811Z,51.156067
2022-09-12T10:23:17.695Z,51.156078
2022-09-12T10:24:17.703Z,51.156109
2022-09-12T10:25:17.654Z,51.156109
2022-09-12T10:26:17.633Z,51.156105
2022-09-12T10:27:17.638Z,51.156116
2022-09-12T10:28:17.642Z,51.156120
2022-09-12T10:29:17.662Z,51.156132
2022-09-12T10:30:17.595Z,51.156105
2022-09-12T10:31:17.717Z,51.156094
2022-09-12T10:32:17.600Z,51.156082
2022-09-12T10:33:17.660Z,51.156113
2022-09-12T10:34:17.573Z,51.156071
2022-09-12T10:35:17.602Z,51.156082
2022-09-12T10:36:17.541Z,51.156082
2022-09-12T10:37:17.598Z,51.156120
2022-09-12T10:38:17.524Z,51.156101
2022-09-12T10:39:17.518Z,51.156109
2022-09-12T10:40:17.569Z,51.156067
2022-09-12T10:41:18.110Z,51.156036
2022-09-12T10:42:21.553Z,51.156086
2022-09-12T10:43:19.496Z,51.156052
2022-09-12T10:44:17.503Z,51.156052
2022-09-12T10:45:17.439Z,51.156052
2022-09-12T10:46:17.521Z,51.156055
2022-09-12T10:47:17.453Z,51.156071
2022-09-12T10:48:17.477Z,51.156059
2022-09-12T10:49:17.418Z,51.156044
2022-09-12T10:50:22.644Z,51.156040
2022-09-12T10:51:19.407Z,51.156021
2022-09-12T10:52:17.446Z,51.156067
2022-09-12T10:53:17.387Z,51.156086
2022-09-12T10:54:17.416Z,51.156090
2022-09-12T10:55:17.370Z,51.156078
2022-09-12T10:56:17.361Z,51.156082
2022-09-12T10:57:17.334Z,51.156075
2022-09-12T10:58:17.325Z,51.156094
2022-09-12T10:59:20.089Z,51.156075
2022-09-12T11:00:18.367Z,51.156082
2022-09-12T11:01:17.362Z,51.156094
2022-09-12T11:02:17.359Z,51.156097
2022-09-12T11:03:17.299Z,51.156136
2022-09-12T11:04:17.284Z,51.156078
2022-09-12T11:05:21.968Z,51.156128
2022-09-12T11:06:19.267Z,51.156040
2022-09-12T11:07:17.265Z,51.156075
2022-09-12T11:08:17.279Z,51.156090
2022-09-12T11:09:17.303Z,51.156116
2022-09-12T11:10:17.247Z,51.156113
2022-09-12T11:11:17.199Z,51.156078
2022-09-12T11:12:17.171Z,51.156124
2022-09-12T11:13:17.185Z,51.156116
2022-09-12T11:14:17.194Z,51.156071
2022-09-12T11:15:17.917Z,51.156120
2022-09-12T11:16:17.268Z,51.156139
2022-09-12T11:17:17.166Z,51.156143
2022-09-12T11:18:17.166Z,51.156109
2022-09-12T11:19:18.088Z,51.156086
2022-09-12T11:20:17.145Z,51.156090
2022-09-12T11:21:17.082Z,51.156097
2022-09-12T11:22:17.082Z,51.156052
2022-09-12T11:23:17.085Z,51.156067
2022-09-12T11:24:17.085Z,51.156105
2022-09-12T11:25:17.024Z,51.156109
2022-09-12T11:26:17.058Z,51.156105
2022-09-12T11:27:17.086Z,51.156101
2022-09-12T11:28:17.090Z,51.156101
2022-09-12T11:29:17.033Z,51.156090
2022-09-12T11:30:17.045Z,51.156109
2022-09-12T11:31:17.120Z,51.156090
2022-09-12T11:32:16.990Z,51.156113
2022-09-12T11:33:17.027Z,51.156120
2022-09-12T11:34:17.059Z,51.156116
2022-09-12T11:35:17.786Z,51.156124
2022-09-12T11:36:17.945Z,51.156109
2022-09-12T11:37:18.147Z,51.156109
2022-09-12T11:38:18.008Z,51.156097
2022-09-12T11:39:16.951Z,51.156109
2022-09-12T11:40:17.010Z,51.156113
2022-09-12T11:41:16.940Z,51.156120
2022-09-12T11:42:16.933Z,51.156124
2022-09-12T11:43:16.890Z,51.156097
2022-09-12T11:44:16.877Z,51.156120
2022-09-12T11:45:16.875Z,51.156113
2022-09-12T11:46:16.917Z,51.156086
2022-09-12T11:47:16.855Z,51.156097
2022-09-12T11:48:16.861Z,51.156101
2022-09-12T11:49:16.846Z,51.156128
2022-09-12T11:50:16.811Z,51.156132
2022-09-12T11:51:16.789Z,51.156136
2022-09-12T11:52:16.802Z,51.156086
2022-09-12T11:53:16.973Z,51.156071
2022-09-12T11:54:16.803Z,51.156101
2022-09-12T11:55:16.839Z,51.156094
2022-09-12T11:56:16.755Z,51.156101
2022-09-12T11:57:16.768Z,51.156090
2022-09-12T11:58:16.729Z,51.156063
2022-09-12T11:59:16.734Z,51.156067
2022-09-12T12:00:16.762Z,51.156059
2022-09-12T12:01:16.729Z,51.156078
2022-09-12T12:02:16.776Z,51.156078
2022-09-12T12:03:16.746Z,51.156086
2022-09-12T12:04:16.714Z,51.156067
2022-09-12T12:05:16.732Z,51.156048
2022-09-12T12:06:16.649Z,51.156075
2022-09-12T12:07:16.693Z,51.156090
2022-09-12T12:08:16.678Z,51.156097
2022-09-12T12:09:16.656Z,51.156105
2022-09-12T12:10:16.638Z,51.156078
2022-09-12T12:11:16.626Z,51.156036
2022-09-12T12:12:16.675Z,51.156059
2022-09-12T12:13:16.605Z,51.156055
2022-09-12T12:14:16.599Z,51.156082
2022-09-12T12:15:16.606Z,51.156109
2022-09-12T12:16:16.657Z,51.156086
2022-09-12T12:17:16.559Z,51.156078
2022-09-12T12:18:16.535Z,51.156063
2022-09-12T12:19:16.574Z,51.156067
2022-09-12T12:20:16.550Z,51.156086
2022-09-12T12:21:16.511Z,51.156075
2022-09-12T12:22:16.546Z,51.156105
2022-09-12T12:23:16.494Z,51.156101
2022-09-12T12:24:16.490Z,51.156082
2022-09-12T12:25:21.325Z,51.156082
2022-09-12T12:26:18.484Z,51.156086
2022-09-12T12:27:16.494Z,51.156113
2022-09-12T12:28:16.481Z,51.156075
2022-09-12T12:29:16.500Z,51.156078
2022-09-12T12:30:16.505Z,51.156067
2022-09-12T12:31:16.472Z,51.156075
2022-09-12T12:32:16.424Z,51.156044
2022-09-12T12:33:16.414Z,51.156055
2022-09-12T12:34:16.770Z,51.156082
2022-09-12T12:35:16.426Z,51.156017
2022-09-12T12:36:16.363Z,51.156025
2022-09-12T12:37:16.355Z,51.156071
2022-09-12T12:38:16.331Z,51.156033
2022-09-12T12:39:16.348Z,51.156063
2022-09-12T12:40:16.426Z,51.156059
2022-09-12T12:41:16.327Z,51.156029
2022-09-12T12:42:19.154Z,51.156029
2022-09-12T12:43:17.331Z,51.156033
2022-09-12T12:44:16.298Z,51.156071
2022-09-12T12:45:16.280Z,51.156082
2022-09-12T12:46:16.314Z,51.156071
2022-09-12T12:47:16.261Z,51.156067
2022-09-12T12:48:16.237Z,51.156055
2022-09-12T12:49:16.443Z,51.156055
2022-09-12T12:50:16.247Z,51.156059
2022-09-12T12:51:16.248Z,51.156063
2022-09-12T12:52:16.227Z,51.156044
2022-09-12T12:53:17.124Z,51.156059
2022-09-12T12:54:16.279Z,51.156090
2022-09-12T12:55:16.202Z,51.156082
2022-09-12T12:56:16.171Z,51.156048
2022-09-12T12:57:16.153Z,51.156048
2022-09-12T12:58:16.161Z,51.156052
2022-09-12T12:59:16.165Z,51.156044
2022-09-12T13:00:16.138Z,51.156055
2022-09-12T13:01:16.169Z,51.156036
2022-09-12T13:02:16.148Z,51.156059
2022-09-12T13:03:16.078Z,51.156094
2022-09-12T13:04:16.122Z,51.156101
2022-09-12T13:05:16.117Z,51.156071
2022-09-12T13:06:16.124Z,51.156078
2022-09-12T13:07:16.055Z,51.156136
2022-09-12T13:08:16.147Z,51.156105
2022-09-12T13:09:16.092Z,51.156158
2022-09-12T13:10:16.074Z,51.156193
2022-09-12T13:11:16.031Z,51.156155
2022-09-12T13:12:16.022Z,51.156063
2022-09-12T13:13:16.051Z,51.156055
2022-09-12T13:14:16.011Z,51.156052
2022-09-12T13:15:16.119Z,51.156055
2022-09-12T13:16:16.061Z,51.156029
2022-09-12T13:17:16.029Z,51.156052
2022-09-12T13:18:16.013Z,51.156075
2022-09-12T13:19:18.343Z,51.156075
2022-09-12T13:20:27.970Z,51.156029
2022-09-12T13:21:17.983Z,51.156055
2022-09-12T13:22:15.935Z,51.156036
2022-09-12T13:23:15.949Z,51.156052
2022-09-12T13:24:16.005Z,51.156006
2022-09-12T13:25:15.910Z,51.156071
2022-09-12T13:26:15.871Z,51.156109
2022-09-12T13:27:16.006Z,51.156067
2022-09-12T13:28:15.873Z,51.156063
2022-09-12T13:29:15.902Z,51.156040
2022-09-12T13:30:15.873Z,51.156044
2022-09-12T13:31:16.801Z,51.156075
2022-09-12T13:32:15.861Z,51.156013
2022-09-12T13:33:15.796Z,51.156048
2022-09-12T13:34:15.792Z,51.156059
2022-09-12T13:35:15.788Z,51.156059
2022-09-12T13:36:15.809Z,51.156059
2022-09-12T13:37:15.779Z,51.156002
2022-09-12T13:38:15.806Z,51.156033
2022-09-12T13:39:15.789Z,51.156025
2022-09-12T13:40:15.767Z,51.155998
2022-09-12T13:41:15.755Z,51.156067
2022-09-12T13:42:15.732Z,51.156052
2022-09-12T13:43:15.704Z,51.156055
2022-09-12T13:44:15.745Z,51.156059
2022-09-12T13:45:15.755Z,51.156071
2022-09-12T13:46:15.756Z,51.156139
2022-09-12T13:47:15.659Z,51.156067
2022-09-12T13:48:15.674Z,51.156063
2022-09-12T13:49:15.744Z,51.156075
2022-09-12T13:50:16.169Z,51.156071
2022-09-12T13:51:15.626Z,51.156097
2022-09-12T13:52:15.663Z,51.156086
2022-09-12T13:53:15.681Z,51.156044
2022-09-12T13:54:15.678Z,51.156090
2022-09-12T13:55:15.655Z,51.156078
2022-09-12T13:56:15.567Z,51.156063
2022-09-12T13:57:15.583Z,51.156071
2022-09-12T13:58:15.629Z,51.156071
2022-09-12T13:59:15.615Z,51.156101
2022-09-12T14:00:15.581Z,51.156094
2022-09-12T14:01:15.581Z,51.156113
2022-09-12T14:02:15.571Z,51.156094
2022-09-12T14:03:15.520Z,51.156101
2022-09-12T14:04:15.519Z,51.156090
2022-09-12T14:05:15.513Z,51.156086
2022-09-12T14:06:15.545Z,51.156094
2022-09-12T14:07:15.507Z,51.156075
2022-09-12T14:08:15.478Z,51.156078
2022-09-12T14:09:15.517Z,51.156078
2022-09-12T14:10:15.530Z,51.156059
2022-09-12T14:11:15.416Z,51.156075
2022-09-12T14:12:15.428Z,51.156082